createdAt,value
2022-08-14T00:00:32.461Z,51.156097
2022-08-14T00:01:32.376Z,51.156094
2022-08-14T00:02:32.449Z,51.156078
2022-08-14T00:03:32.337Z,51.156086
2022-08-14T00:04:36.065Z,51.156094
2022-08-14T00:05:33.305Z,51.156055
2022-08-14T00:06:32.895Z,51.156006
2022-08-14T00:07:32.239Z,51.156048
2022-08-14T00:08:43.728Z,51.156059
2022-08-14T00:09:33.298Z,51.156097
2022-08-14T00:10:49.879Z,51.156105
2022-08-14T00:11:33.289Z,51.156105
2022-08-14T00:12:34.112Z,51.156109
2022-08-14T00:13:33.389Z,51.156101
2022-08-14T00:14:32.198Z,51.156082
2022-08-14T00:15:37.510Z,51.156101
2022-08-14T00:16:40.482Z,51.156113
2022-08-14T00:17:47.563Z,51.156086
2022-08-14T00:19:06.633Z,51.156086
2022-08-14T00:19:33.213Z,51.156090
2022-08-14T00:20:41.183Z,51.156116
2022-08-14T00:21:33.168Z,51.156097
2022-08-14T00:22:56.600Z,51.156120
2022-08-14T00:23:33.452Z,51.156128
2022-08-14T00:24:32.106Z,51.156094
2022-08-14T00:25:42.455Z,51.156097
2022-08-14T00:26:33.132Z,51.156147
2022-08-14T00:27:37.528Z,51.156113
2022-08-14T00:28:35.048Z,51.156082
2022-08-14T00:29:33.229Z,51.156097
2022-08-14T00:30:32.107Z,51.156101
2022-08-14T00:31:35.180Z,51.156128
2022-08-14T00:33:06.140Z,51.156090
2022-08-14T00:33:51.482Z,51.156113
2022-08-14T00:34:37.329Z,51.156086
2022-08-14T00:36:34.376Z,51.156109
2022-08-14T00:36:35.276Z,51.156094
2022-08-14T00:37:33.020Z,51.156055
2022-08-14T00:38:32.186Z,51.156097
2022-08-14T00:39:32.102Z,51.156101
2022-08-14T00:40:33.510Z,51.156105
2022-08-14T00:41:32.116Z,51.156109
2022-08-14T00:42:54.994Z,51.156082
2022-08-14T00:43:33.065Z,51.156097
2022-08-14T00:44:33.336Z,51.156109
2022-08-14T00:45:31.967Z,51.156101
2022-08-14T00:46:33.353Z,51.156094
2022-08-14T00:47:31.881Z,51.156094
2022-08-14T00:48:34.387Z,51.156094
2022-08-14T00:49:38.349Z,51.156090
2022-08-14T00:50:32.829Z,51.156086
2022-08-14T00:51:34.716Z,51.156090
2022-08-14T00:52:32.886Z,51.156075
2022-08-14T00:53:31.843Z,51.156063
2022-08-14T00:54:31.822Z,51.156055
2022-08-14T00:55:31.878Z,51.156090
2022-08-14T00:56:31.786Z,51.156090
2022-08-14T00:57:32.746Z,51.156101
2022-08-14T00:58:32.839Z,51.156101
2022-08-14T00:59:31.722Z,51.156036
2022-08-14T01:00:37.142Z,51.156059
2022-08-14T01:01:32.871Z,51.156040
2022-08-14T01:02:32.360Z,51.156059
2022-08-14T01:03:31.725Z,51.156025
2022-08-14T01:04:50.865Z,51.156040
2022-08-14T01:05:51.044Z,51.156052
2022-08-14T01:06:33.523Z,51.156059
2022-08-14T01:07:38.801Z,51.156071
2022-08-14T01:08:51.813Z,51.156075
2022-08-14T01:09:32.739Z,51.156059
2022-08-14T01:10:38.289Z,51.156113
2022-08-14T01:11:36.126Z,51.156013
2022-08-14T01:12:31.682Z,51.156006
2022-08-14T01:13:42.950Z,51.156078
2022-08-14T01:14:32.597Z,51.156036
2022-08-14T01:15:55.118Z,51.156040
2022-08-14T01:16:32.600Z,51.156067
2022-08-14T01:17:31.601Z,51.156094
2022-08-14T01:18:31.630Z,51.156082
2022-08-14T01:19:31.553Z,51.156078
2022-08-14T01:20:31.559Z,51.156082
2022-08-14T01:21:31.554Z,51.156094
2022-08-14T01:22:31.555Z,51.156124
2022-08-14T01:23:41.638Z,51.156086
2022-08-14T01:24:34.391Z,51.156101
2022-08-14T01:25:31.579Z,51.156090
2022-08-14T01:26:35.094Z,51.156086
2022-08-14T01:27:32.461Z,51.156082
2022-08-14T01:28:47.399Z,51.156067
2022-08-14T01:29:58.081Z,51.156086
2022-08-14T01:30:36.577Z,51.156082
2022-08-14T01:31:32.488Z,51.156067
2022-08-14T01:32:31.452Z,51.156075
2022-08-14T01:34:00.450Z,51.156075
2022-08-14T01:35:18.505Z,51.156078
2022-08-14T01:36:05.244Z,51.156105
2022-08-14T01:36:32.388Z,51.156071
2022-08-14T01:37:31.639Z,51.156071
2022-08-14T01:38:31.381Z,51.156071
2022-08-14T01:39:32.154Z,51.156132
2022-08-14T01:40:36.140Z,51.156120
2022-08-14T01:41:32.358Z,51.156086
2022-08-14T01:42:36.387Z,51.156044
2022-08-14T01:43:35.941Z,51.156055
2022-08-14T01:44:34.034Z,51.156075
2022-08-14T01:45:40.053Z,51.156113
2022-08-14T01:46:33.268Z,51.156101
2022-08-14T01:47:33.584Z,51.156094
2022-08-14T01:48:32.268Z,51.156128
2022-08-14T01:49:33.462Z,51.156116
2022-08-14T01:50:32.772Z,51.156078
2022-08-14T01:51:31.340Z,51.156086
2022-08-14T01:52:34.111Z,51.156101
2022-08-14T01:54:04.106Z,51.156105
2022-08-14T01:54:38.115Z,51.156105
2022-08-14T01:55:32.989Z,51.156094
2022-08-14T01:56:31.216Z,51.156101
2022-08-14T01:57:49.207Z,51.156113
2022-08-14T01:58:32.099Z,51.156105
2022-08-14T01:59:37.838Z,51.156082
2022-08-14T02:00:36.336Z,51.156101
2022-08-14T02:01:31.142Z,51.156101
2022-08-14T02:02:31.061Z,51.156109
2022-08-14T02:03:32.076Z,51.156101
2022-08-14T02:04:55.006Z,51.156101
2022-08-14T02:05:38.114Z,51.156101
2022-08-14T02:06:33.751Z,51.156101
2022-08-14T02:07:44.603Z,51.156082
2022-08-14T02:08:35.160Z,51.156067
2022-08-14T02:09:31.976Z,51.156078
2022-08-14T02:10:30.999Z,51.156094
2022-08-14T02:11:31.018Z,51.156082
2022-08-14T02:12:30.994Z,51.156044
2022-08-14T02:13:30.974Z,51.156036
2022-08-14T02:14:31.909Z,51.156071
2022-08-14T02:15:31.005Z,51.156082
2022-08-14T02:16:30.968Z,51.156067
2022-08-14T02:17:31.059Z,51.156075
2022-08-14T02:18:32.630Z,51.156075
2022-08-14T02:19:31.583Z,51.156052
2022-08-14T02:20:30.868Z,51.156071
2022-08-14T02:21:31.637Z,51.156082
2022-08-14T02:22:33.148Z,51.156063
2022-08-14T02:23:36.364Z,51.156063
2022-08-14T02:24:40.037Z,51.156101
2022-08-14T02:25:31.889Z,51.156082
2022-08-14T02:26:30.934Z,51.156078
2022-08-14T02:28:20.131Z,51.156097
2022-08-14T02:28:57.391Z,51.156052
2022-08-14T02:29:56.419Z,51.156059
2022-08-14T02:30:32.722Z,51.156052
2022-08-14T02:31:42.135Z,51.156132
2022-08-14T02:50:33.671Z,51.156090
2022-08-14T02:51:33.501Z,51.156094
2022-08-14T02:52:57.622Z,51.156124
2022-08-14T02:53:33.611Z,51.156101
2022-08-14T02:54:32.324Z,51.156082
2022-08-14T02:55:32.269Z,51.156086
2022-08-14T02:57:13.894Z,51.156082
2022-08-14T02:57:39.210Z,51.156063
2022-08-14T02:58:33.276Z,51.156136
2022-08-14T02:59:33.707Z,51.156078
2022-08-14T03:00:32.276Z,51.156078
2022-08-14T03:01:50.143Z,51.156021
2022-08-14T03:02:48.830Z,51.156120
2022-08-14T03:03:35.463Z,51.156090
2022-08-14T03:04:32.182Z,51.156090
2022-08-14T03:05:36.236Z,51.156105
2022-08-14T03:06:48.983Z,51.156105
2022-08-14T03:07:33.200Z,51.156033
2022-08-14T03:08:32.175Z,51.156094
2022-08-14T03:10:25.252Z,51.156086
2022-08-14T03:10:33.536Z,51.156075
2022-08-14T03:11:35.235Z,51.156090
2022-08-14T03:12:42.958Z,51.156116
2022-08-14T03:13:34.163Z,51.156094
2022-08-14T03:14:32.105Z,51.156094
2022-08-14T03:15:32.060Z,51.156082
2022-08-14T03:16:32.120Z,51.156132
2022-08-14T03:17:41.270Z,51.156086
2022-08-14T03:18:33.125Z,51.156116
2022-08-14T03:19:33.068Z,51.156086
2022-08-14T03:20:32.055Z,51.156090
2022-08-14T03:21:32.056Z,51.156063
2022-08-14T03:22:32.059Z,51.156052
2022-08-14T03:23:32.096Z,51.156040
2022-08-14T03:24:31.987Z,51.156101
2022-08-14T03:25:31.961Z,51.156078
2022-08-14T03:26:31.980Z,51.156071
2022-08-14T03:27:35.416Z,51.156090
2022-08-14T03:28:33.710Z,51.156078
2022-08-14T03:29:31.948Z,51.156075
2022-08-14T03:30:39.634Z,51.156109
2022-08-14T03:31:32.934Z,51.156094
2022-08-14T03:32:32.148Z,51.156063
2022-08-14T03:33:37.728Z,51.156067
2022-08-14T03:34:48.524Z,51.156086
2022-08-14T03:35:39.763Z,51.156101
2022-08-14T03:37:50.763Z,51.156097
2022-08-14T03:39:09.012Z,51.156090
2022-08-14T03:39:15.721Z,51.156052
2022-08-14T03:39:32.857Z,51.156059
2022-08-14T03:40:31.860Z,51.156063
2022-08-14T03:41:33.117Z,51.156078
2022-08-14T03:42:36.759Z,51.156094
2022-08-14T03:43:32.808Z,51.156078
2022-08-14T03:45:27.210Z,51.156170
2022-08-14T03:45:34.793Z,51.156132
2022-08-14T03:46:51.994Z,51.156109
2022-08-14T03:47:46.302Z,51.156101
2022-08-14T03:48:40.347Z,51.156101
2022-08-14T03:49:32.736Z,51.156071
2022-08-14T03:50:32.429Z,51.156105
2022-08-14T03:51:31.741Z,51.156128
2022-08-14T03:52:40.564Z,51.156132
2022-08-14T03:53:34.258Z,51.156136
2022-08-14T03:54:31.693Z,51.156128
2022-08-14T03:55:31.747Z,51.156128
2022-08-14T03:56:31.715Z,51.156120
2022-08-14T03:57:31.702Z,51.156105
2022-08-14T03:58:36.292Z,51.156151
2022-08-14T03:59:32.803Z,51.156151
2022-08-14T04:00:42.784Z,51.156120
2022-08-14T04:01:39.044Z,51.156132
2022-08-14T04:02:37.382Z,51.156143
2022-08-14T04:03:32.628Z,51.156124
2022-08-14T04:04:31.628Z,51.156120
2022-08-14T04:05:37.945Z,51.156109
2022-08-14T04:06:32.599Z,51.156132
2022-08-14T04:07:32.745Z,51.156155
2022-08-14T04:08:31.797Z,51.156174
2022-08-14T04:09:31.572Z,51.156162
2022-08-14T04:10:32.822Z,51.156132
2022-08-14T04:11:31.565Z,51.156128
2022-08-14T04:12:31.597Z,51.156136
2022-08-14T04:13:34.017Z,51.156132
2022-08-14T04:14:31.579Z,51.156097
2022-08-14T04:15:56.449Z,51.156090
2022-08-14T04:16:32.483Z,51.156090
2022-08-14T04:17:31.508Z,51.156090
2022-08-14T04:18:31.486Z,51.156097
2022-08-14T04:19:32.974Z,51.156090
2022-08-14T04:20:31.481Z,51.156109
2022-08-14T04:21:39.732Z,51.156113
2022-08-14T04:22:32.451Z,51.156124
2022-08-14T04:23:33.288Z,51.156105
2022-08-14T04:24:37.851Z,51.156075
2022-08-14T04:25:32.416Z,51.156082
2022-08-14T04:26:42.341Z,51.156101
2022-08-14T04:27:32.439Z,51.156094
2022-08-14T04:29:07.151Z,51.156094
2022-08-14T04:29:32.593Z,51.156109
2022-08-14T04:30:33.135Z,51.156113
2022-08-14T04:32:57.723Z,51.156105
2022-08-14T04:32:59.877Z,51.156082
2022-08-14T04:33:32.382Z,51.156086
2022-08-14T04:34:31.333Z,51.156082
2022-08-14T04:35:50.759Z,51.156086
2022-08-14T04:36:32.280Z,51.156086
2022-08-14T04:37:31.319Z,51.156128
2022-08-14T04:38:37.087Z,51.156109
2022-08-14T04:39:32.374Z,51.156116
2022-08-14T04:40:31.241Z,51.156097
2022-08-14T04:41:31.245Z,51.156086
2022-08-14T04:42:31.308Z,51.156097
2022-08-14T04:43:38.956Z,51.156109
2022-08-14T04:44:36.692Z,51.156094
2022-08-14T04:45:31.233Z,51.156067
2022-08-14T04:46:56.000Z,51.156040
2022-08-14T04:47:32.185Z,51.156101
2022-08-14T04:48:39.394Z,51.156075
2022-08-14T04:49:32.182Z,51.156101
2022-08-14T04:50:37.833Z,51.156078
2022-08-14T04:51:46.451Z,51.156097
2022-08-14T04:52:32.159Z,51.156094
2022-08-14T04:53:35.341Z,51.156090
2022-08-14T04:54:32.107Z,51.156067
2022-08-14T04:55:31.126Z,51.156059
2022-08-14T04:56:33.869Z,51.156071
2022-08-14T04:57:31.092Z,51.156071
2022-08-14T04:58:32.979Z,51.156059
2022-08-14T04:59:31.140Z,51.156067
2022-08-14T05:00:31.089Z,51.156071
2022-08-14T05:01:39.995Z,51.156078
2022-08-14T05:02:32.216Z,51.156063
2022-08-14T05:03:31.058Z,51.156082
2022-08-14T05:04:31.037Z,51.156067
2022-08-14T05:05:32.223Z,51.156113
2022-08-14T05:06:38.598Z,51.156120
2022-08-14T05:07:46.575Z,51.156071
2022-08-14T05:08:50.415Z,51.156101
2022-08-14T05:09:32.095Z,51.156090
2022-08-14T05:10:32.366Z,51.156063
2022-08-14T05:11:31.016Z,51.156059
2022-08-14T05:13:10.967Z,51.156071
2022-08-14T05:13:42.293Z,51.156075
2022-08-14T05:14:45.851Z,51.156036
2022-08-14T05:15:32.204Z,51.156067
2022-08-14T05:16:30.953Z,51.156105
2022-08-14T05:17:43.452Z,51.156086
2022-08-14T05:18:52.954Z,51.156097
2022-08-14T05:19:32.656Z,51.156071
2022-08-14T05:21:05.137Z,51.156086
2022-08-14T05:22:00.552Z,51.156097
2022-08-14T05:22:31.997Z,51.156063
2022-08-14T05:23:30.826Z,51.156174
2022-08-14T05:24:30.852Z,51.156120
2022-08-14T05:25:33.596Z,51.156109
2022-08-14T05:26:30.894Z,51.156040
2022-08-14T05:27:31.214Z,51.156055
2022-08-14T05:28:30.803Z,51.156055
2022-08-14T05:29:30.792Z,51.156063
2022-08-14T05:30:30.826Z,51.156052
2022-08-14T05:31:39.680Z,51.156059
2022-08-14T05:32:31.762Z,51.156055
2022-08-14T05:33:31.536Z,51.156086
2022-08-14T05:34:31.854Z,51.156082
2022-08-14T05:35:30.744Z,51.156059
2022-08-14T05:36:30.782Z,51.156075
2022-08-14T05:37:30.779Z,51.156082
2022-08-14T05:38:32.001Z,51.156094
2022-08-14T05:39:31.136Z,51.156105
2022-08-14T05:40:30.760Z,51.156090
2022-08-14T05:41:48.542Z,51.156113
2022-08-14T05:42:32.179Z,51.156124
2022-08-14T05:43:40.713Z,51.156120
2022-08-14T05:44:31.659Z,51.156059
2022-08-14T05:45:30.635Z,51.156090
2022-08-14T05:46:30.620Z,51.156109
2022-08-14T05:47:33.991Z,51.156086
2022-08-14T05:48:33.579Z,51.156078
2022-08-14T05:49:32.874Z,51.156067
2022-08-14T05:50:30.584Z,51.156063
2022-08-14T05:51:30.736Z,51.156090
2022-08-14T05:52:38.313Z,51.156132
2022-08-14T05:53:33.642Z,51.156097
2022-08-14T05:54:35.311Z,51.156090
2022-08-14T05:55:31.541Z,51.156113
2022-08-14T05:56:30.503Z,51.156105
2022-08-14T05:57:30.546Z,51.156105
2022-08-14T05:58:40.831Z,51.156090
2022-08-14T05:59:39.337Z,51.156116
2022-08-14T06:00:34.850Z,51.156097
2022-08-14T06:01:31.873Z,51.156105
2022-08-14T06:02:30.467Z,51.156082
2022-08-14T06:03:30.416Z,51.156101
2022-08-14T06:04:30.498Z,51.156109
2022-08-14T06:05:30.593Z,51.156086
2022-08-14T06:06:33.795Z,51.156033
2022-08-14T06:07:31.455Z,51.156094
2022-08-14T06:08:36.776Z,51.156158
2022-08-14T06:09:35.802Z,51.156147
2022-08-14T06:10:31.455Z,51.156094
2022-08-14T06:11:31.079Z,51.156075
2022-08-14T06:12:55.826Z,51.156097
2022-08-14T06:13:31.646Z,51.156078
2022-08-14T06:14:31.372Z,51.156052
2022-08-14T06:15:30.878Z,51.156055
2022-08-14T06:16:31.348Z,51.156063
2022-08-14T06:17:46.037Z,51.156090
2022-08-14T06:18:31.978Z,51.156113
2022-08-14T06:19:30.318Z,51.156090
2022-08-14T06:20:30.314Z,51.156082
2022-08-14T06:21:30.252Z,51.156082
2022-08-14T06:22:30.282Z,51.156136
2022-08-14T06:23:30.309Z,51.156105
2022-08-14T06:24:34.919Z,51.156155
2022-08-14T06:25:30.246Z,51.156162
2022-08-14T06:26:30.755Z,51.156143
2022-08-14T06:27:33.922Z,51.156136
2022-08-14T06:28:30.400Z,51.156197
2022-08-14T06:29:32.189Z,51.156132
2022-08-14T06:30:45.639Z,51.156132
2022-08-14T06:31:31.222Z,51.156124
2022-08-14T06:32:37.863Z,51.156082
2022-08-14T06:35:10.582Z,51.156090
2022-08-14T06:35:11.362Z,51.156101
2022-08-14T06:35:31.143Z,51.156109
2022-08-14T06:36:30.236Z,51.156097
2022-08-14T06:37:30.153Z,51.156094
2022-08-14T06:38:30.241Z,51.156132
2022-08-14T06:39:36.529Z,51.156136
2022-08-14T06:40:30.213Z,51.156151
2022-08-14T06:41:44.054Z,51.156139
2022-08-14T06:42:32.568Z,51.156139
2022-08-14T06:43:30.343Z,51.156116
2022-08-14T06:44:33.100Z,51.156082
2022-08-14T06:45:30.055Z,51.156124
2022-08-14T06:46:34.424Z,51.156139
2022-08-14T06:47:31.015Z,51.156116
2022-08-14T06:48:30.993Z,51.156078
2022-08-14T06:49:30.290Z,51.156105
2022-08-14T06:50:30.458Z,51.156139
2022-08-14T06:51:38.844Z,51.156124
2022-08-14T06:52:31.035Z,51.156113
2022-08-14T06:53:29.962Z,51.156113
2022-08-14T06:54:31.017Z,51.156120
2022-08-14T06:55:29.960Z,51.156090
2022-08-14T06:56:29.908Z,51.156078
2022-08-14T06:57:30.050Z,51.156113
2022-08-14T06:58:31.686Z,51.156132
2022-08-14T06:59:29.895Z,51.156136
2022-08-14T07:00:31.554Z,51.156116
2022-08-14T07:01:30.538Z,51.156090
2022-08-14T07:02:29.951Z,51.156109
2022-08-14T07:03:30.038Z,51.156116
2022-08-14T07:04:29.928Z,51.156101
2022-08-14T07:05:30.037Z,51.156128
2022-08-14T07:06:46.355Z,51.156132
2022-08-14T07:07:30.972Z,51.156086
2022-08-14T07:08:31.601Z,51.156086
2022-08-14T07:09:43.521Z,51.156113
2022-08-14T07:10:31.206Z,51.156101
2022-08-14T07:11:29.835Z,51.156105
2022-08-14T07:12:54.872Z,51.156101
2022-08-14T07:13:31.032Z,51.156124
2022-08-14T07:14:29.936Z,51.156113
2022-08-14T07:15:32.393Z,51.156097
2022-08-14T07:16:30.533Z,51.156136
2022-08-14T07:17:31.979Z,51.156105
2022-08-14T07:18:29.729Z,51.156105
2022-08-14T07:19:29.713Z,51.156086
2022-08-14T07:20:30.643Z,51.156113
2022-08-14T07:21:29.702Z,51.156128
2022-08-14T07:22:33.109Z,51.156116
2022-08-14T07:23:31.275Z,51.156113
2022-08-14T07:24:31.323Z,51.156128
2022-08-14T07:25:32.523Z,51.156113
2022-08-14T07:26:29.666Z,51.156094
2022-08-14T07:27:33.365Z,51.156086
2022-08-14T07:28:29.703Z,51.156101
2022-08-14T07:29:29.627Z,51.156109
2022-08-14T07:30:34.207Z,51.156094
2022-08-14T07:31:30.556Z,51.156075
2022-08-14T07:32:30.306Z,51.156090
2022-08-14T07:33:30.283Z,51.156090
2022-08-14T07:34:36.344Z,51.156120
2022-08-14T07:35:42.884Z,51.156082
2022-08-14T07:40:45.994Z,51.156082
2022-08-14T07:41:45.717Z,51.156075
2022-08-14T07:42:45.898Z,51.156078
2022-08-14T07:43:47.465Z,51.156078
2022-08-14T07:44:50.519Z,51.156090
2022-08-14T07:45:45.601Z,51.156082
2022-08-14T07:46:46.871Z,51.156086
2022-08-14T07:47:45.643Z,51.156059
2022-08-14T07:48:45.505Z,51.156055
2022-08-14T07:49:45.555Z,51.156116
2022-08-14T07:50:46.649Z,51.156109
2022-08-14T07:51:45.525Z,51.156033
2022-08-14T07:52:45.690Z,51.156109
2022-08-14T07:53:45.447Z,51.156067
2022-08-14T07:54:45.484Z,51.156097
2022-08-14T07:55:45.829Z,51.156075
2022-08-14T07:56:50.576Z,51.156044
2022-08-14T07:57:45.430Z,51.156055
2022-08-14T07:58:51.751Z,51.156052
2022-08-14T07:59:47.140Z,51.156048
2022-08-14T08:00:45.363Z,51.156029
2022-08-14T08:01:48.016Z,51.156055
2022-08-14T08:02:47.990Z,51.156059
2022-08-14T08:03:47.755Z,51.156063
2022-08-14T08:04:46.396Z,51.156059
2022-08-14T08:05:45.785Z,51.156071
2022-08-14T08:06:45.631Z,51.156044
2022-08-14T08:07:45.303Z,51.156067
2022-08-14T08:08:58.777Z,51.156063
2022-08-14T08:09:46.411Z,51.156052
2022-08-14T08:11:01.600Z,51.156055
2022-08-14T08:11:46.353Z,51.156040
2022-08-14T08:12:46.359Z,51.156059
2022-08-14T08:13:49.013Z,51.156055
2022-08-14T08:14:55.806Z,51.156071
2022-08-14T08:15:46.409Z,51.156086
2022-08-14T08:16:45.272Z,51.156116
2022-08-14T08:17:53.935Z,51.156094
2022-08-14T08:18:46.285Z,51.156090
2022-08-14T08:19:45.245Z,51.156086
2022-08-14T08:20:45.193Z,51.156059
2022-08-14T08:21:46.627Z,51.156078
2022-08-14T08:22:48.316Z,51.156105
2022-08-14T08:23:51.330Z,51.156071
2022-08-14T08:24:46.152Z,51.156109
2022-08-14T08:25:45.161Z,51.156021
2022-08-14T08:26:45.480Z,51.156025
2022-08-14T08:27:45.102Z,51.156052
2022-08-14T08:28:45.347Z,51.156078
2022-08-14T08:29:50.694Z,51.156071
2022-08-14T08:30:49.613Z,51.156067
2022-08-14T08:31:51.042Z,51.156063
2022-08-14T08:32:47.118Z,51.156071
2022-08-14T08:33:49.381Z,51.156040
2022-08-14T08:34:45.317Z,51.156036
2022-08-14T08:35:47.122Z,51.156044
2022-08-14T08:36:46.605Z,51.156029
2022-08-14T08:37:45.036Z,51.156048
2022-08-14T08:39:17.744Z,51.156036
2022-08-14T08:40:03.093Z,51.156029
2022-08-14T08:40:46.265Z,51.155998
2022-08-14T08:41:44.989Z,51.156021
2022-08-14T08:42:45.250Z,51.155979
2022-08-14T08:43:47.040Z,51.155975
2022-08-14T08:44:45.152Z,51.155998
2022-08-14T08:45:45.249Z,51.156021
2022-08-14T08:46:45.267Z,51.156059
2022-08-14T08:47:45.290Z,51.156063
2022-08-14T08:48:53.903Z,51.156040
2022-08-14T08:49:52.771Z,51.156025
2022-08-14T08:50:45.986Z,51.156029
2022-08-14T08:51:45.056Z,51.156025
2022-08-14T08:52:45.011Z,51.156094
2022-08-14T08:53:45.344Z,51.156052
2022-08-14T08:54:45.038Z,51.156063
2022-08-14T08:55:44.991Z,51.156090
2022-08-14T08:56:45.143Z,51.156101
2022-08-14T08:57:45.066Z,51.156109
2022-08-14T08:58:44.900Z,51.156036
2022-08-14T08:59:44.852Z,51.156067
2022-08-14T09:00:44.994Z,51.156132
2022-08-14T09:01:44.787Z,51.156189
2022-08-14T09:02:44.984Z,51.156067
2022-08-14T09:03:45.066Z,51.156082
2022-08-14T09:04:45.516Z,51.156055
2022-08-14T09:05:44.864Z,51.156090
2022-08-14T09:07:09.029Z,51.156029
2022-08-14T09:07:45.766Z,51.156067
2022-08-14T09:08:44.773Z,51.156197
2022-08-14T09:09:53.735Z,51.156307
2022-08-14T09:10:45.719Z,51.156338
2022-08-14T09:11:44.927Z,51.156239
2022-08-14T09:12:46.811Z,51.156158
2022-08-14T09:13:45.799Z,51.156139
2022-08-14T09:14:59.213Z,51.156158
2022-08-14T09:15:45.918Z,51.156139
2022-08-14T09:16:48.273Z,51.156185
2022-08-14T09:17:46.229Z,51.156200
2022-08-14T09:18:45.077Z,51.156170
2022-08-14T09:19:44.630Z,51.156124
2022-08-14T09:20:45.523Z,51.156158
2022-08-14T09:21:44.715Z,51.156200
2022-08-14T09:22:48.231Z,51.156189
2022-08-14T09:24:26.572Z,51.156082
2022-08-14T09:24:45.899Z,51.156178
2022-08-14T09:25:59.711Z,51.156063
2022-08-14T09:26:49.305Z,51.156136
2022-08-14T09:27:44.577Z,51.156136
2022-08-14T09:28:44.682Z,51.156139
2022-08-14T09:29:45.044Z,51.156132
2022-08-14T09:30:45.906Z,51.156147
2022-08-14T09:31:52.710Z,51.156128
2022-08-14T09:32:59.483Z,51.156113
2022-08-14T09:33:56.604Z,51.156116
2022-08-14T09:34:58.257Z,51.156124
2022-08-14T09:35:45.568Z,51.156174
2022-08-14T09:36:46.790Z,51.156116
2022-08-14T09:37:44.650Z,51.156124
2022-08-14T09:38:44.459Z,51.156139
2022-08-14T09:39:44.700Z,51.156071
2022-08-14T09:40:44.517Z,51.156116
2022-08-14T09:42:20.943Z,51.156189
2022-08-14T09:42:52.032Z,51.156128
2022-08-14T09:43:45.434Z,51.156040
2022-08-14T09:44:45.724Z,51.156212
2022-08-14T09:45:53.126Z,51.156170
2022-08-14T09:46:49.861Z,51.156094
2022-08-14T09:47:44.362Z,51.156067
2022-08-14T09:48:44.379Z,51.156136
2022-08-14T09:49:52.045Z,51.156105
2022-08-14T09:50:45.344Z,51.156162
2022-08-14T09:51:51.805Z,51.156189
2022-08-14T09:52:46.731Z,51.156101
2022-08-14T09:54:18.915Z,51.156090
2022-08-14T09:54:45.351Z,51.156090
2022-08-14T09:55:44.365Z,51.156139
2022-08-14T09:56:44.458Z,51.156193
2022-08-14T09:57:44.310Z,51.156147
2022-08-14T09:58:44.525Z,51.156185
2022-08-14T09:59:44.271Z,51.156181
2022-08-14T10:00:44.283Z,51.156113
2022-08-14T10:01:46.195Z,51.156174
2022-08-14T10:02:45.632Z,51.156185
2022-08-14T10:03:44.292Z,51.156097
2022-08-14T10:04:46.031Z,51.156101
2022-08-14T10:05:46.247Z,51.156094
2022-08-14T10:06:44.313Z,51.156120
2022-08-14T10:07:47.567Z,51.156105
2022-08-14T10:08:44.530Z,51.156219
2022-08-14T10:09:44.207Z,51.156227
2022-08-14T10:10:45.619Z,51.156216
2022-08-14T10:11:45.870Z,51.156113
2022-08-14T10:12:44.795Z,51.156086
2022-08-14T10:13:53.402Z,51.156094
2022-08-14T10:14:45.225Z,51.156097
2022-08-14T10:15:45.251Z,51.156101
2022-08-14T10:16:44.918Z,51.156036
2022-08-14T10:17:44.442Z,51.156075
2022-08-14T10:18:44.656Z,51.156090
2022-08-14T10:19:44.106Z,51.156078
2022-08-14T10:20:47.045Z,51.156124
2022-08-14T10:21:58.753Z,51.156097
2022-08-14T10:23:12.745Z,51.156078
2022-08-14T10:23:45.104Z,51.156139
2022-08-14T10:24:44.005Z,51.156128
2022-08-14T10:25:44.138Z,51.156075
2022-08-14T10:26:44.396Z,51.156101
2022-08-14T10:27:43.989Z,51.156124
2022-08-14T10:29:18.071Z,51.156120
2022-08-14T10:29:45.214Z,51.156071
2022-08-14T10:30:44.127Z,51.156029
2022-08-14T10:31:45.173Z,51.155994
2022-08-14T10:32:49.692Z,51.156105
2022-08-14T10:33:49.117Z,51.156105
2022-08-14T10:34:45.336Z,51.156147
2022-08-14T10:35:48.146Z,51.156097
2022-08-14T10:36:47.741Z,51.156147
2022-08-14T10:37:44.274Z,51.156055
2022-08-14T10:38:43.892Z,51.156040
2022-08-14T10:40:01.415Z,51.156113
2022-08-14T10:40:52.010Z,51.156139
2022-08-14T10:41:48.479Z,51.156082
2022-08-14T10:42:44.084Z,51.156101
2022-08-14T10:43:43.876Z,51.156101
2022-08-14T10:44:43.887Z,51.156055
2022-08-14T10:45:51.981Z,51.156094
2022-08-14T10:47:41.117Z,51.156105
2022-08-14T10:48:08.068Z,51.156113
2022-08-14T10:48:46.115Z,51.156109
2022-08-14T10:49:44.993Z,51.156178
2022-08-14T10:50:43.736Z,51.156136
2022-08-14T10:51:45.056Z,51.156105
2022-08-14T10:52:43.813Z,51.156143
2022-08-14T10:53:44.118Z,51.156170
2022-08-14T10:54:43.775Z,51.156105
2022-08-14T10:55:44.912Z,51.156120
2022-08-14T10:56:43.728Z,51.156116
2022-08-14T10:57:43.723Z,51.156097
2022-08-14T10:58:43.687Z,51.156086
2022-08-14T10:59:43.734Z,51.156097
2022-08-14T11:00:47.004Z,51.156094
2022-08-14T11:01:43.703Z,51.156097
2022-08-14T11:02:54.090Z,51.156113
2022-08-14T11:03:55.884Z,51.156097
2022-08-14T11:04:44.747Z,51.156090
2022-08-14T11:05:43.632Z,51.156094
2022-08-14T11:06:43.642Z,51.156086
2022-08-14T11:07:43.698Z,51.156071
2022-08-14T11:08:45.581Z,51.156075
2022-08-14T11:09:43.555Z,51.156075
2022-08-14T11:10:43.556Z,51.156082
2022-08-14T11:11:43.563Z,51.156075
2022-08-14T11:12:43.575Z,51.156071
2022-08-14T11:13:43.627Z,51.156109
2022-08-14T11:14:44.075Z,51.156075
2022-08-14T11:15:43.530Z,51.156075
2022-08-14T11:16:53.333Z,51.156071
2022-08-14T11:17:45.955Z,51.156116
2022-08-14T11:18:43.469Z,51.156105
2022-08-14T11:19:43.542Z,51.156075
2022-08-14T11:20:44.469Z,51.156086
2022-08-14T11:21:45.803Z,51.156101
2022-08-14T11:23:02.867Z,51.156078
2022-08-14T11:23:44.568Z,51.156090
2022-08-14T11:35:15.569Z,51.156158
2022-08-14T11:36:18.426Z,51.156174
2022-08-14T11:37:23.611Z,51.156082
2022-08-14T11:38:17.000Z,51.156082
2022-08-14T11:39:14.544Z,51.156044
2022-08-14T11:40:14.598Z,51.156052
2022-08-14T11:41:14.547Z,51.156055
2022-08-14T11:42:57.377Z,51.156055
2022-08-14T11:43:15.594Z,51.156040
2022-08-14T11:44:17.845Z,51.156036
2022-08-14T11:45:18.649Z,51.156048
2022-08-14T11:46:17.765Z,51.156059
2022-08-14T11:47:15.464Z,51.156063
2022-08-14T11:49:02.106Z,51.156109
2022-08-14T11:49:21.938Z,51.156082
2022-08-14T11:50:33.857Z,51.156090
2022-08-14T12:00:39.508Z,51.156082
2022-08-14T12:01:40.980Z,51.156048
2022-08-14T12:03:01.325Z,51.156040
2022-08-14T12:03:46.054Z,51.156132
2022-08-14T12:04:35.847Z,51.156109
2022-08-14T12:05:35.909Z,51.156105
2022-08-14T12:06:39.307Z,51.156071